Azamara Quest — V7DM6 — position and weather

sailwx.info

Track history (hours):
 
Tides and Currents Weather Stations Pressure Air Temp Water Temp Dewpoint Dewpoint Depression Visibility Wind Speed Wind Dir Waves Ship Positions

Azamara Quest

Last reported at 2017-Aug-18 06:15 UTC. Time now 2017-Aug-18 10:51 UTC.
Position N 54°05' E 007°44'.

Length 184 m; draft 7.9 m.

Type: Ship. MMSI: 538005401.

Date/timePositionNaut miles runAvg speedWind from/ knotsBaromVisibWave heightAir tempDewpointWater temp
2017-Aug-18 06:15N 54°05' E 007°44'1 3.0
2017-Aug-18 05:59N 54°04' E 007°43'3 6.6
2017-Aug-18 05:30N 54°01' E 007°41'612.6
2017-Aug-18 05:00N 53°55' E 007°44'812.1
2017-Aug-18 04:20N 53°50' E 007°54'411.4
2017-Aug-18 04:00N 53°48' E 008°00'510.9
2017-Aug-18 03:30N 53°43' E 008°04'611.0
2017-Aug-18 03:00N 53°38' E 008°08'1 1.9
2017-Aug-18 02:26N 53°37' E 008°08'0 0.0
2017-Aug-17 23:05N 53°37' E 008°08'0 0.0
2017-Aug-17 22:50N 53°37' E 008°08'0 0.0
2017-Aug-17 20:29N 53°37' E 008°08'0 0.0
2017-Aug-17 19:59N 53°37' E 008°08'0 0.0
2017-Aug-17 19:20N 53°37' E 008°08'0 0.0
2017-Aug-17 18:53N 53°37' E 008°08'0 0.0
2017-Aug-17 18:28N 53°37' E 008°08'0 0.0
2017-Aug-17 17:43N 53°37' E 008°08'0 0.0
2017-Aug-17 17:19N 53°37' E 008°08'0 0.0
2017-Aug-17 16:55N 53°37' E 008°08'0 0.0
2017-Aug-17 16:25N 53°37' E 008°08'0 0.0
2017-Aug-17 15:55N 53°37' E 008°08'0 0.0
2017-Aug-17 15:28N 53°37' E 008°08'0 0.0
2017-Aug-17 14:19N 53°37' E 008°08'0 0.0
2017-Aug-17 13:52N 53°37' E 008°08'0 0.0
2017-Aug-17 13:25N 53°37' E 008°08'0 0.0
2017-Aug-17 12:49N 53°37' E 008°08'0 0.0
2017-Aug-17 11:31N 53°37' E 008°08'0 0.0
2017-Aug-17 11:04N 53°37' E 008°08'0 0.0
2017-Aug-17 09:55N 53°37' E 008°08'0 0.0
2017-Aug-17 05:43N 53°37' E 008°08'0 0.0
2017-Aug-17 05:22N 53°37' E 008°08'0 0.0
2017-Aug-16 23:37N 53°37' E 008°08'0 0.0
2017-Aug-16 23:07N 53°37' E 008°08'0 0.0
2017-Aug-16 21:31N 53°37' E 008°08'0 0.0
2017-Aug-16 21:28N 53°37' E 008°08'0 0.0
2017-Aug-16 20:40N 53°37' E 008°08'0 0.0
2017-Aug-16 20:16N 53°37' E 008°08'0 0.0
2017-Aug-16 18:23N 53°37' E 008°08'1 2.9
2017-Aug-16 18:00N 53°38' E 008°08'3 6.3
2017-Aug-16 17:30N 53°41' E 008°05'4 7.7
2017-Aug-16 17:00N 53°45' E 008°03'611.6
2017-Aug-16 16:29N 53°49' E 007°56'613.0
2017-Aug-16 16:00N 53°52' E 007°46'76 1.5
2017-Aug-14 13:53N 54°50' E 006°21'0 0.0
2017-Aug-14 13:02N 54°50' E 006°21'0 0.0
2017-Aug-14 12:56N 54°50' E 006°21'0 0.0
2017-Aug-14 12:29N 54°50' E 006°21'0 0.0
2017-Aug-14 11:59N 54°50' E 006°21'0 0.0
2017-Aug-14 11:29N 54°50' E 006°21'0 0.0
2017-Aug-14 10:56N 54°50' E 006°21'0 0.0
2017-Aug-14 10:29N 54°50' E 006°21'0 0.0
2017-Aug-12 14:44N 54°50' E 006°21'0 0.1
2017-Aug-12 14:28N 54°50' E 006°21'0 0.0
2017-Aug-12 13:56N 54°50' E 006°21'0 0.0
2017-Aug-12 13:25N 54°50' E 006°21'0 0.0
2017-Aug-12 12:58N 54°50' E 006°21'0 0.0
2017-Aug-12 12:28N 54°50' E 006°21'213 4.4
2017-Aug-10 11:47N 57°50' E 009°47'2812.2
2017-Aug-10 09:29N 57°50' E 010°39'612.1
2017-Aug-10 08:58N 57°47' E 010°49'510.1
2017-Aug-10 08:29N 57°43' E 010°55'612.3
2017-Aug-10 08:00N 57°39' E 011°03'612.6
2017-Aug-10 07:30N 57°35' E 011°12'612.4
2017-Aug-10 07:00N 57°31' E 011°21'612.4
2017-Aug-10 06:29N 57°25' E 011°28'612.9
2017-Aug-10 06:00N 57°19' E 011°31'712.7
2017-Aug-10 05:29N 57°13' E 011°35'612.3
2017-Aug-10 05:00N 57°08' E 011°39'612.0
2017-Aug-10 04:30N 57°02' E 011°43'5811.5
2017-Aug-09 23:26N 56°06' E 011°11'613.3
2017-Aug-09 23:00N 56°01' E 011°06'713.2
2017-Aug-09 22:29N 55°56' E 010°59'713.6
2017-Aug-09 21:59N 55°50' E 010°51'613.1
2017-Aug-09 21:30N 55°44' E 010°49'510.7
2017-Aug-09 21:00N 55°39' E 010°47'713.8
2017-Aug-09 20:29N 55°32' E 010°51'713.1
2017-Aug-09 19:59N 55°27' E 010°57'613.2
2017-Aug-09 19:30N 55°21' E 011°02'713.3
2017-Aug-09 19:00N 55°15' E 011°06'611.5
2017-Aug-09 18:30N 55°10' E 011°01'613.0
2017-Aug-09 18:00N 55°03' E 010°60'612.9
2017-Aug-09 17:30N 54°57' E 010°56'713.2
2017-Aug-09 17:00N 54°51' E 010°50'713.3
2017-Aug-09 16:30N 54°45' E 010°48'510.8
2017-Aug-09 16:00N 54°40' E 010°50'612.6
2017-Aug-09 15:30N 54°36' E 010°59'612.5
2017-Aug-09 15:00N 54°35' E 011°10'612.6
2017-Aug-09 14:30N 54°33' E 011°20'713.0
2017-Aug-09 14:00N 54°30' E 011°30'612.8
2017-Aug-09 13:30N 54°28' E 011°40'612.7
2017-Aug-09 13:00N 54°26' E 011°51'612.7
2017-Aug-09 12:30N 54°26' E 012°02'1210.2
2017-Aug-09 11:17N 54°36' E 012°16'2 7.8
2017-Aug-09 11:00N 54°37' E 012°19'4 8.1
2017-Aug-09 10:30N 54°39' E 012°24'1510.9
2017-Aug-09 09:10N 54°47' E 012°46'2811.9
2017-Aug-09 06:52N 54°57' E 013°30'612.1
2017-Aug-09 06:21N 54°60' E 013°40'412.2
2017-Aug-09 06:00N 55°01' E 013°47'612.3
2017-Aug-09 05:30N 55°03' E 013°57'611.7
2017-Aug-09 05:00N 55°06' E 014°06'612.1
2017-Aug-09 04:30N 55°11' E 014°13'612.3
2017-Aug-09 04:00N 55°15' E 014°20'612.2
2017-Aug-09 03:30N 55°20' E 014°26'612.2
2017-Aug-09 03:00N 55°25' E 014°33'612.0
2017-Aug-09 02:30N 55°28' E 014°42'612.4
2017-Aug-09 02:00N 55°31' E 014°52'612.4
2017-Aug-09 01:30N 55°33' E 015°02'612.2
2017-Aug-09 01:00N 55°36' E 015°12'612.1
2017-Aug-09 00:30N 55°38' E 015°22'612.1
2017-Aug-09 00:00N 55°39' E 015°33'612.6
2017-Aug-08 23:30N 55°41' E 015°43'712.9
2017-Aug-08 23:00N 55°43' E 015°54'612.9
2017-Aug-08 22:30N 55°44' E 016°05'612.8
2017-Aug-08 22:00N 55°46' E 016°16'612.8
2017-Aug-08 21:30N 55°48' E 016°27'612.7
2017-Aug-08 21:00N 55°49' E 016°38'612.6
2017-Aug-08 20:30N 55°51' E 016°49'612.6
2017-Aug-08 20:00N 55°53' E 016°60'612.7
2017-Aug-08 19:30N 55°54' E 017°11'612.7
2017-Aug-08 19:00N 55°56' E 017°22'712.7
2017-Aug-08 18:27N 55°58' E 017°34'612.5
2017-Aug-08 18:00N 55°60' E 017°43'612.4
2017-Aug-08 17:30N 56°03' E 017°53'612.4
2017-Aug-08 17:00N 56°06' E 018°02'612.3
2017-Aug-08 16:30N 56°10' E 018°11'612.4
2017-Aug-08 16:00N 56°13' E 018°21'612.4
2017-Aug-08 15:30N 56°16' E 018°30'612.7
2017-Aug-08 15:00N 56°20' E 018°39'612.3
2017-Aug-08 14:30N 56°24' E 018°47'712.6
2017-Aug-08 13:55N 56°31' E 018°54'512.6
2017-Aug-08 13:30N 56°35' E 018°58'612.6
2017-Aug-08 13:00N 56°41' E 019°04'612.6
2017-Aug-08 12:30N 56°46' E 019°09'612.5
2017-Aug-08 12:00N 56°52' E 019°15'612.5
2017-Aug-08 11:30N 56°57' E 019°20'612.6
2017-Aug-08 11:00N 57°03' E 019°26'612.6
2017-Aug-08 10:30N 57°08' E 019°31'612.6
2017-Aug-08 10:00N 57°14' E 019°37'612.6
2017-Aug-08 09:30N 57°19' E 019°42'612.6
2017-Aug-08 09:00N 57°25' E 019°47'612.8
2017-Aug-08 08:30N 57°31' E 019°52'612.7
2017-Aug-08 08:00N 57°37' E 019°57'612.6
2017-Aug-08 07:30N 57°43' E 020°01'612.5
2017-Aug-08 07:00N 57°48' E 020°06'612.6
2017-Aug-08 06:30N 57°54' E 020°11'  
Track history (hours):
 
Tides and Currents Weather Stations Pressure Air Temp Water Temp Dewpoint Dewpoint Depression Visibility Wind Speed Wind Dir Waves Ship Positions

Azamara Quest

Last reported at 2017-Aug-18 06:15 UTC. Time now 2017-Aug-18 10:51 UTC.
Position N 54°05' E 007°44'.

Length 184 m; draft 7.9 m.

Type: Ship. MMSI: 538005401.

Date/timePositionNaut miles runAvg speedWind from/ knotsBaromVisibWave heightAir tempDewpointWater temp
2017-Aug-18 06:15N 54°05' E 007°44'1 3.0
2017-Aug-18 05:59N 54°04' E 007°43'3 6.6
2017-Aug-18 05:30N 54°01' E 007°41'612.6
2017-Aug-18 05:00N 53°55' E 007°44'812.1
2017-Aug-18 04:20N 53°50' E 007°54'411.4
2017-Aug-18 04:00N 53°48' E 008°00'510.9
2017-Aug-18 03:30N 53°43' E 008°04'611.0
2017-Aug-18 03:00N 53°38' E 008°08'1 1.9
2017-Aug-18 02:26N 53°37' E 008°08'0 0.0
2017-Aug-17 23:05N 53°37' E 008°08'0 0.0
2017-Aug-17 22:50N 53°37' E 008°08'0 0.0
2017-Aug-17 20:29N 53°37' E 008°08'0 0.0
2017-Aug-17 19:59N 53°37' E 008°08'0 0.0
2017-Aug-17 19:20N 53°37' E 008°08'0 0.0
2017-Aug-17 18:53N 53°37' E 008°08'0 0.0
2017-Aug-17 18:28N 53°37' E 008°08'0 0.0
2017-Aug-17 17:43N 53°37' E 008°08'0 0.0
2017-Aug-17 17:19N 53°37' E 008°08'0 0.0
2017-Aug-17 16:55N 53°37' E 008°08'0 0.0
2017-Aug-17 16:25N 53°37' E 008°08'0 0.0
2017-Aug-17 15:55N 53°37' E 008°08'0 0.0
2017-Aug-17 15:28N 53°37' E 008°08'0 0.0
2017-Aug-17 14:19N 53°37' E 008°08'0 0.0
2017-Aug-17 13:52N 53°37' E 008°08'0 0.0
2017-Aug-17 13:25N 53°37' E 008°08'0 0.0
2017-Aug-17 12:49N 53°37' E 008°08'0 0.0
2017-Aug-17 11:31N 53°37' E 008°08'0 0.0
2017-Aug-17 11:04N 53°37' E 008°08'0 0.0
2017-Aug-17 09:55N 53°37' E 008°08'0 0.0
2017-Aug-17 05:43N 53°37' E 008°08'0 0.0
2017-Aug-17 05:22N 53°37' E 008°08'0 0.0
2017-Aug-16 23:37N 53°37' E 008°08'0 0.0
2017-Aug-16 23:07N 53°37' E 008°08'0 0.0
2017-Aug-16 21:31N 53°37' E 008°08'0 0.0
2017-Aug-16 21:28N 53°37' E 008°08'0 0.0
2017-Aug-16 20:40N 53°37' E 008°08'0 0.0
2017-Aug-16 20:16N 53°37' E 008°08'0 0.0
2017-Aug-16 18:23N 53°37' E 008°08'1 2.9
2017-Aug-16 18:00N 53°38' E 008°08'3 6.3
2017-Aug-16 17:30N 53°41' E 008°05'4 7.7
2017-Aug-16 17:00N 53°45' E 008°03'611.6
2017-Aug-16 16:29N 53°49' E 007°56'613.0
2017-Aug-16 16:00N 53°52' E 007°46'76 1.5
2017-Aug-14 13:53N 54°50' E 006°21'0 0.0
2017-Aug-14 13:02N 54°50' E 006°21'0 0.0
2017-Aug-14 12:56N 54°50' E 006°21'0 0.0
2017-Aug-14 12:29N 54°50' E 006°21'0 0.0
2017-Aug-14 11:59N 54°50' E 006°21'0 0.0
2017-Aug-14 11:29N 54°50' E 006°21'0 0.0
2017-Aug-14 10:56N 54°50' E 006°21'0 0.0
2017-Aug-14 10:29N 54°50' E 006°21'0 0.0
2017-Aug-12 14:44N 54°50' E 006°21'0 0.1
2017-Aug-12 14:28N 54°50' E 006°21'0 0.0
2017-Aug-12 13:56N 54°50' E 006°21'0 0.0
2017-Aug-12 13:25N 54°50' E 006°21'0 0.0
2017-Aug-12 12:58N 54°50' E 006°21'0 0.0
2017-Aug-12 12:28N 54°50' E 006°21'213 4.4
2017-Aug-10 11:47N 57°50' E 009°47'2812.2
2017-Aug-10 09:29N 57°50' E 010°39'612.1
2017-Aug-10 08:58N 57°47' E 010°49'510.1
2017-Aug-10 08:29N 57°43' E 010°55'612.3
2017-Aug-10 08:00N 57°39' E 011°03'612.6
2017-Aug-10 07:30N 57°35' E 011°12'612.4
2017-Aug-10 07:00N 57°31' E 011°21'612.4
2017-Aug-10 06:29N 57°25' E 011°28'612.9
2017-Aug-10 06:00N 57°19' E 011°31'712.7
2017-Aug-10 05:29N 57°13' E 011°35'612.3
2017-Aug-10 05:00N 57°08' E 011°39'612.0
2017-Aug-10 04:30N 57°02' E 011°43'5811.5
2017-Aug-09 23:26N 56°06' E 011°11'613.3
2017-Aug-09 23:00N 56°01' E 011°06'713.2
2017-Aug-09 22:29N 55°56' E 010°59'713.6
2017-Aug-09 21:59N 55°50' E 010°51'613.1
2017-Aug-09 21:30N 55°44' E 010°49'510.7
2017-Aug-09 21:00N 55°39' E 010°47'713.8
2017-Aug-09 20:29N 55°32' E 010°51'713.1
2017-Aug-09 19:59N 55°27' E 010°57'613.2
2017-Aug-09 19:30N 55°21' E 011°02'713.3
2017-Aug-09 19:00N 55°15' E 011°06'611.5
2017-Aug-09 18:30N 55°10' E 011°01'613.0
2017-Aug-09 18:00N 55°03' E 010°60'612.9
2017-Aug-09 17:30N 54°57' E 010°56'713.2
2017-Aug-09 17:00N 54°51' E 010°50'713.3
2017-Aug-09 16:30N 54°45' E 010°48'510.8
2017-Aug-09 16:00N 54°40' E 010°50'612.6
2017-Aug-09 15:30N 54°36' E 010°59'612.5
2017-Aug-09 15:00N 54°35' E 011°10'612.6
2017-Aug-09 14:30N 54°33' E 011°20'713.0
2017-Aug-09 14:00N 54°30' E 011°30'612.8
2017-Aug-09 13:30N 54°28' E 011°40'612.7
2017-Aug-09 13:00N 54°26' E 011°51'612.7
2017-Aug-09 12:30N 54°26' E 012°02'1210.2
2017-Aug-09 11:17N 54°36' E 012°16'2 7.8
2017-Aug-09 11:00N 54°37' E 012°19'4 8.1
2017-Aug-09 10:30N 54°39' E 012°24'1510.9
2017-Aug-09 09:10N 54°47' E 012°46'2811.9
2017-Aug-09 06:52N 54°57' E 013°30'612.1
2017-Aug-09 06:21N 54°60' E 013°40'412.2
2017-Aug-09 06:00N 55°01' E 013°47'612.3
2017-Aug-09 05:30N 55°03' E 013°57'611.7
2017-Aug-09 05:00N 55°06' E 014°06'612.1
2017-Aug-09 04:30N 55°11' E 014°13'612.3
2017-Aug-09 04:00N 55°15' E 014°20'612.2
2017-Aug-09 03:30N 55°20' E 014°26'612.2
2017-Aug-09 03:00N 55°25' E 014°33'612.0
2017-Aug-09 02:30N 55°28' E 014°42'612.4
2017-Aug-09 02:00N 55°31' E 014°52'612.4
2017-Aug-09 01:30N 55°33' E 015°02'612.2
2017-Aug-09 01:00N 55°36' E 015°12'612.1
2017-Aug-09 00:30N 55°38' E 015°22'612.1
2017-Aug-09 00:00N 55°39' E 015°33'612.6
2017-Aug-08 23:30N 55°41' E 015°43'712.9
2017-Aug-08 23:00N 55°43' E 015°54'612.9
2017-Aug-08 22:30N 55°44' E 016°05'612.8
2017-Aug-08 22:00N 55°46' E 016°16'612.8
2017-Aug-08 21:30N 55°48' E 016°27'612.7
2017-Aug-08 21:00N 55°49' E 016°38'612.6
2017-Aug-08 20:30N 55°51' E 016°49'612.6
2017-Aug-08 20:00N 55°53' E 016°60'612.7
2017-Aug-08 19:30N 55°54' E 017°11'612.7
2017-Aug-08 19:00N 55°56' E 017°22'712.7
2017-Aug-08 18:27N 55°58' E 017°34'612.5
2017-Aug-08 18:00N 55°60' E 017°43'612.4
2017-Aug-08 17:30N 56°03' E 017°53'612.4
2017-Aug-08 17:00N 56°06' E 018°02'612.3
2017-Aug-08 16:30N 56°10' E 018°11'612.4
2017-Aug-08 16:00N 56°13' E 018°21'612.4
2017-Aug-08 15:30N 56°16' E 018°30'612.7
2017-Aug-08 15:00N 56°20' E 018°39'612.3
2017-Aug-08 14:30N 56°24' E 018°47'712.6
2017-Aug-08 13:55N 56°31' E 018°54'512.6
2017-Aug-08 13:30N 56°35' E 018°58'612.6
2017-Aug-08 13:00N 56°41' E 019°04'612.6
2017-Aug-08 12:30N 56°46' E 019°09'612.5
2017-Aug-08 12:00N 56°52' E 019°15'612.5
2017-Aug-08 11:30N 56°57' E 019°20'612.6
2017-Aug-08 11:00N 57°03' E 019°26'612.6
2017-Aug-08 10:30N 57°08' E 019°31'612.6
2017-Aug-08 10:00N 57°14' E 019°37'612.6
2017-Aug-08 09:30N 57°19' E 019°42'612.6
2017-Aug-08 09:00N 57°25' E 019°47'612.8
2017-Aug-08 08:30N 57°31' E 019°52'612.7
2017-Aug-08 08:00N 57°37' E 019°57'612.6
2017-Aug-08 07:30N 57°43' E 020°01'612.5
2017-Aug-08 07:00N 57°48' E 020°06'612.6
2017-Aug-08 06:30N 57°54' E 020°11'  

Dump ship's entire track history